sensor_id;sensor_type;location;lat;lon;timestamp;temperature;humidity
52125;DHT22;38119;52.710;6.398;2022-10-18T00:01:54;13.80;99.90
52125;DHT22;38119;52.710;6.398;2022-10-18T00:04:20;13.80;99.90
52125;DHT22;38119;52.710;6.398;2022-10-18T00:06:46;13.80;99.90
52125;DHT22;38119;52.710;6.398;2022-10-18T00:09:12;13.80;99.90
52125;DHT22;38119;52.710;6.398;2022-10-18T00:11:37;13.80;99.90
52125;DHT22;38119;52.710;6.398;2022-10-18T00:14:03;13.70;99.90
52125;DHT22;38119;52.710;6.398;2022-10-18T00:16:29;13.80;99.90
52125;DHT22;38119;52.710;6.398;2022-10-18T00:18:55;13.80;99.90
52125;DHT22;38119;52.710;6.398;2022-10-18T00:21:22;13.70;99.90
52125;DHT22;38119;52.710;6.398;2022-10-18T00:23:49;13.80;99.90
52125;DHT22;38119;52.710;6.398;2022-10-18T00:26:17;13.70;99.90
52125;DHT22;38119;52.710;6.398;2022-10-18T00:28:44;13.70;99.90
52125;DHT22;38119;52.710;6.398;2022-10-18T00:31:12;13.70;99.90
52125;DHT22;38119;52.710;6.398;2022-10-18T00:33:38;13.70;99.90
52125;DHT22;38119;52.710;6.398;2022-10-18T00:36:04;13.70;99.90
52125;DHT22;38119;52.710;6.398;2022-10-18T00:38:30;13.70;99.90
52125;DHT22;38119;52.710;6.398;2022-10-18T00:40:55;13.70;99.90
52125;DHT22;38119;52.710;6.398;2022-10-18T00:43:21;13.70;99.90
52125;DHT22;38119;52.710;6.398;2022-10-18T00:45:47;13.60;99.90
52125;DHT22;38119;52.710;6.398;2022-10-18T00:48:13;13.60;99.90
52125;DHT22;38119;52.710;6.398;2022-10-18T00:50:39;13.60;99.90
52125;DHT22;38119;52.710;6.398;2022-10-18T00:53:10;13.60;99.90
52125;DHT22;38119;52.710;6.398;2022-10-18T00:55:37;13.60;99.90
52125;DHT22;38119;52.710;6.398;2022-10-18T00:58:04;13.50;99.90
52125;DHT22;38119;52.710;6.398;2022-10-18T01:00:31;13.50;99.90
52125;DHT22;38119;52.710;6.398;2022-10-18T01:02:58;13.50;99.90
52125;DHT22;38119;52.710;6.398;2022-10-18T01:05:24;13.50;99.90
52125;DHT22;38119;52.710;6.398;2022-10-18T01:08:13;13.40;99.90
52125;DHT22;38119;52.710;6.398;2022-10-18T01:16:40;13.40;99.90
52125;DHT22;38119;52.710;6.398;2022-10-18T01:22:01;13.40;99.90
52125;DHT22;38119;52.710;6.398;2022-10-18T01:32:30;13.30;99.90
52125;DHT22;38119;52.710;6.398;2022-10-18T01:35:01;13.30;99.90
52125;DHT22;38119;52.710;6.398;2022-10-18T01:37:28;13.30;99.90
52125;DHT22;38119;52.710;6.398;2022-10-18T01:39:56;13.30;99.90
52125;DHT22;38119;52.710;6.398;2022-10-18T01:42:22;13.30;99.90
52125;DHT22;38119;52.710;6.398;2022-10-18T01:44:51;13.30;99.90
52125;DHT22;38119;52.710;6.398;2022-10-18T01:47:17;13.30;99.90
52125;DHT22;38119;52.710;6.398;2022-10-18T01:49:43;13.30;99.90
52125;DHT22;38119;52.710;6.398;2022-10-18T01:52:12;13.30;99.90
52125;DHT22;38119;52.710;6.398;2022-10-18T01:54:41;13.30;99.90
52125;DHT22;38119;52.710;6.398;2022-10-18T01:57:23;13.30;99.90
52125;DHT22;38119;52.710;6.398;2022-10-18T02:00:15;13.30;99.90
52125;DHT22;38119;52.710;6.398;2022-10-18T02:02:48;13.30;99.90
52125;DHT22;38119;52.710;6.398;2022-10-18T02:05:38;13.30;99.90
52125;DHT22;38119;52.710;6.398;2022-10-18T02:08:29;13.30;99.90
52125;DHT22;38119;52.710;6.398;2022-10-18T02:11:06;13.30;99.90
52125;DHT22;38119;52.710;6.398;2022-10-18T02:13:42;13.30;99.90
52125;DHT22;38119;52.710;6.398;2022-10-18T02:16:15;13.30;99.90
52125;DHT22;38119;52.710;6.398;2022-10-18T02:18:48;13.30;99.90
52125;DHT22;38119;52.710;6.398;2022-10-18T02:21:17;13.30;99.90
52125;DHT22;38119;52.710;6.398;2022-10-18T02:23:44;13.30;99.90
52125;DHT22;38119;52.710;6.398;2022-10-18T02:26:11;13.30;99.90
52125;DHT22;38119;52.710;6.398;2022-10-18T02:28:37;13.30;99.90
52125;DHT22;38119;52.710;6.398;2022-10-18T02:31:24;13.30;99.90
52125;DHT22;38119;52.710;6.398;2022-10-18T02:36:46;13.20;99.90
52125;DHT22;38119;52.710;6.398;2022-10-18T02:39:15;13.20;99.90
52125;DHT22;38119;52.710;6.398;2022-10-18T02:41:42;13.20;99.90
52125;DHT22;38119;52.710;6.398;2022-10-18T02:44:09;13.20;99.90
52125;DHT22;38119;52.710;6.398;2022-10-18T02:46:35;13.20;99.90
52125;DHT22;38119;52.710;6.398;2022-10-18T02:49:01;13.20;99.90
52125;DHT22;38119;52.710;6.398;2022-10-18T02:51:27;13.20;99.90
52125;DHT22;38119;52.710;6.398;2022-10-18T02:53:52;13.20;99.90
52125;DHT22;38119;52.710;6.398;2022-10-18T02:56:18;13.20;99.90
52125;DHT22;38119;52.710;6.398;2022-10-18T02:58:43;13.20;99.90
52125;DHT22;38119;52.710;6.398;2022-10-18T03:01:09;13.10;99.90
52125;DHT22;38119;52.710;6.398;2022-10-18T03:03:34;13.10;99.90
52125;DHT22;38119;52.710;6.398;2022-10-18T03:06:00;13.10;99.90
52125;DHT22;38119;52.710;6.398;2022-10-18T03:08:29;13.10;99.90
52125;DHT22;38119;52.710;6.398;2022-10-18T03:10:55;13.10;99.90
52125;DHT22;38119;52.710;6.398;2022-10-18T03:13:20;13.10;99.90
52125;DHT22;38119;52.710;6.398;2022-10-18T03:15:47;13.10;99.90
52125;DHT22;38119;52.710;6.398;2022-10-18T03:18:13;13.10;99.90
52125;DHT22;38119;52.710;6.398;2022-10-18T03:20:39;13.10;99.90
52125;DHT22;38119;52.710;6.398;2022-10-18T03:23:08;13.00;99.90
52125;DHT22;38119;52.710;6.398;2022-10-18T03:25:33;13.10;99.90
52125;DHT22;38119;52.710;6.398;2022-10-18T03:27:59;13.20;99.90
52125;DHT22;38119;52.710;6.398;2022-10-18T03:30:24;13.10;99.90
52125;DHT22;38119;52.710;6.398;2022-10-18T03:32:50;13.10;99.90
52125;DHT22;38119;52.710;6.398;2022-10-18T03:35:16;13.10;99.90
52125;DHT22;38119;52.710;6.398;2022-10-18T03:37:42;13.10;99.90
52125;DHT22;38119;52.710;6.398;2022-10-18T03:40:07;13.00;99.90
52125;DHT22;38119;52.710;6.398;2022-10-18T03:42:33;13.10;99.90
52125;DHT22;38119;52.710;6.398;2022-10-18T03:44:59;13.10;99.90
52125;DHT22;38119;52.710;6.398;2022-10-18T03:47:24;13.20;99.90
52125;DHT22;38119;52.710;6.398;2022-10-18T03:49:50;13.10;99.90
52125;DHT22;38119;52.710;6.398;2022-10-18T03:52:15;13.00;99.90
52125;DHT22;38119;52.710;6.398;2022-10-18T03:54:41;13.10;99.90
52125;DHT22;38119;52.710;6.398;2022-10-18T03:57:06;13.00;99.90
52125;DHT22;38119;52.710;6.398;2022-10-18T03:59:32;13.00;99.90
52125;DHT22;38119;52.710;6.398;2022-10-18T04:01:58;13.00;99.90
52125;DHT22;38119;52.710;6.398;2022-10-18T04:04:23;13.10;99.90
52125;DHT22;38119;52.710;6.398;2022-10-18T04:06:49;13.00;99.90
52125;DHT22;38119;52.710;6.398;2022-10-18T04:09:14;13.00;99.90
52125;DHT22;38119;52.710;6.398;2022-10-18T04:11:40;13.00;99.90
52125;DHT22;38119;52.710;6.398;2022-10-18T04:14:05;13.00;99.90
52125;DHT22;38119;52.710;6.398;2022-10-18T04:16:31;13.00;99.90
52125;DHT22;38119;52.710;6.398;2022-10-18T04:18:57;13.00;99.90
52125;DHT22;38119;52.710;6.398;2022-10-18T04:21:22;13.00;99.90
52125;DHT22;38119;52.710;6.398;2022-10-18T04:23:48;13.00;99.90
52125;DHT22;38119;52.710;6.398;2022-10-18T04:26:17;12.90;99.90
52125;DHT22;38119;52.710;6.398;2022-10-18T04:28:43;12.90;99.90
52125;DHT22;38119;52.710;6.398;2022-10-18T04:31:09;13.00;99.90
52125;DHT22;38119;52.710;6.398;2022-10-18T04:33:36;12.80;99.90
52125;DHT22;38119;52.710;6.398;2022-10-18T04:36:02;12.90;99.90
52125;DHT22;38119;52.710;6.398;2022-10-18T04:38:28;12.90;99.90
52125;DHT22;38119;52.710;6.398;2022-10-18T04:40:53;12.90;99.90
52125;DHT22;38119;52.710;6.398;2022-10-18T04:43:19;13.00;99.90
52125;DHT22;38119;52.710;6.398;2022-10-18T04:45:45;12.90;99.90
52125;DHT22;38119;52.710;6.398;2022-10-18T04:48:11;12.90;99.90
52125;DHT22;38119;52.710;6.398;2022-10-18T04:50:37;12.90;99.90
52125;DHT22;38119;52.710;6.398;2022-10-18T04:53:02;12.90;99.90
52125;DHT22;38119;52.710;6.398;2022-10-18T04:55:28;12.90;99.90
52125;DHT22;38119;52.710;6.398;2022-10-18T04:57:54;12.90;99.90
52125;DHT22;38119;52.710;6.398;2022-10-18T05:00:20;12.90;99.90
52125;DHT22;38119;52.710;6.398;2022-10-18T05:02:45;12.90;99.90
52125;DHT22;38119;52.710;6.398;2022-10-18T05:05:11;12.90;99.90
52125;DHT22;38119;52.710;6.398;2022-10-18T05:07:36;12.90;99.90
52125;DHT22;38119;52.710;6.398;2022-10-18T05:10:03;12.90;99.90
52125;DHT22;38119;52.710;6.398;2022-10-18T05:12:29;12.90;99.90
52125;DHT22;38119;52.710;6.398;2022-10-18T05:14:54;12.90;99.90
52125;DHT22;38119;52.710;6.398;2022-10-18T05:17:20;12.90;99.90
52125;DHT22;38119;52.710;6.398;2022-10-18T05:19:46;12.90;99.90
52125;DHT22;38119;52.710;6.398;2022-10-18T05:22:11;12.90;99.90
52125;DHT22;38119;52.710;6.398;2022-10-18T05:24:37;12.80;99.90
52125;DHT22;38119;52.710;6.398;2022-10-18T05:27:03;12.80;99.90
52125;DHT22;38119;52.710;6.398;2022-10-18T05:29:28;12.80;99.90
52125;DHT22;38119;52.710;6.398;2022-10-18T05:31:54;12.80;99.90
52125;DHT22;38119;52.710;6.398;2022-10-18T05:34:20;12.80;99.90
52125;DHT22;38119;52.710;6.398;2022-10-18T05:36:46;12.80;99.90
52125;DHT22;38119;52.710;6.398;2022-10-18T05:39:13;12.80;99.90
52125;DHT22;38119;52.710;6.398;2022-10-18T05:41:39;12.80;99.90
52125;DHT22;38119;52.710;6.398;2022-10-18T05:44:05;12.80;99.90
52125;DHT22;38119;52.710;6.398;2022-10-18T05:46:31;12.80;99.90
52125;DHT22;38119;52.710;6.398;2022-10-18T05:48:56;12.80;99.90
52125;DHT22;38119;52.710;6.398;2022-10-18T05:51:22;12.80;99.90
52125;DHT22;38119;52.710;6.398;2022-10-18T05:53:48;12.80;99.90
52125;DHT22;38119;52.710;6.398;2022-10-18T05:56:13;12.80;99.90
52125;DHT22;38119;52.710;6.398;2022-10-18T05:58:40;12.80;99.90
52125;DHT22;38119;52.710;6.398;2022-10-18T06:01:07;12.80;99.90
52125;DHT22;38119;52.710;6.398;2022-10-18T06:03:33;12.70;99.90
52125;DHT22;38119;52.710;6.398;2022-10-18T06:06:10;12.80;99.90
52125;DHT22;38119;52.710;6.398;2022-10-18T06:08:37;12.70;99.90
52125;DHT22;38119;52.710;6.398;2022-10-18T06:11:11;12.70;99.90
52125;DHT22;38119;52.710;6.398;2022-10-18T06:13:41;12.70;99.90
52125;DHT22;38119;52.710;6.398;2022-10-18T06:16:08;12.70;99.90
52125;DHT22;38119;52.710;6.398;2022-10-18T06:18:34;12.70;99.90
52125;DHT22;38119;52.710;6.398;2022-10-18T06:20:59;12.70;99.90
52125;DHT22;38119;52.710;6.398;2022-10-18T06:23:28;12.60;99.90
52125;DHT22;38119;52.710;6.398;2022-10-18T06:26:02;12.60;99.90
52125;DHT22;38119;52.710;6.398;2022-10-18T06:28:29;12.60;99.90
52125;DHT22;38119;52.710;6.398;2022-10-18T06:30:56;12.60;99.90
52125;DHT22;38119;52.710;6.398;2022-10-18T06:33:22;12.60;99.90
52125;DHT22;38119;52.710;6.398;2022-10-18T06:35:58;12.60;99.90
52125;DHT22;38119;52.710;6.398;2022-10-18T06:38:25;12.70;99.90
52125;DHT22;38119;52.710;6.398;2022-10-18T06:40:51;12.60;99.90
52125;DHT22;38119;52.710;6.398;2022-10-18T06:43:17;12.60;99.90
52125;DHT22;38119;52.710;6.398;2022-10-18T06:45:42;12.60;99.90
52125;DHT22;38119;52.710;6.398;2022-10-18T06:48:08;12.50;99.90
52125;DHT22;38119;52.710;6.398;2022-10-18T06:50:33;12.50;99.90
52125;DHT22;38119;52.710;6.398;2022-10-18T06:52:59;12.50;99.90
52125;DHT22;38119;52.710;6.398;2022-10-18T06:55:25;12.60;99.90
52125;DHT22;38119;52.710;6.398;2022-10-18T06:57:52;12.50;99.90
52125;DHT22;38119;52.710;6.398;2022-10-18T07:00:17;12.50;99.90
52125;DHT22;38119;52.710;6.398;2022-10-18T07:02:43;12.50;99.90
52125;DHT22;38119;52.710;6.398;2022-10-18T07:05:09;12.60;99.90
52125;DHT22;38119;52.710;6.398;2022-10-18T07:07:36;12.50;99.90
52125;DHT22;38119;52.710;6.398;2022-10-18T07:10:02;12.50;99.90
52125;DHT22;38119;52.710;6.398;2022-10-18T07:12:31;12.50;99.90
52125;DHT22;38119;52.710;6.398;2022-10-18T07:14:57;12.50;99.90
52125;DHT22;38119;52.710;6.398;2022-10-18T07:17:23;12.50;99.90
52125;DHT22;38119;52.710;6.398;2022-10-18T07:19:48;12.50;99.90
52125;DHT22;38119;52.710;6.398;2022-10-18T07:22:14;12.50;99.90
52125;DHT22;38119;52.710;6.398;2022-10-18T07:24:39;12.60;99.90
52125;DHT22;38119;52.710;6.398;2022-10-18T07:27:05;12.50;99.90
52125;DHT22;38119;52.710;6.398;2022-10-18T07:29:31;12.50;99.90
52125;DHT22;38119;52.710;6.398;2022-10-18T07:31:56;12.60;99.90
52125;DHT22;38119;52.710;6.398;2022-10-18T07:34:22;12.60;99.90
52125;DHT22;38119;52.710;6.398;2022-10-18T07:36:48;12.60;99.90
52125;DHT22;38119;52.710;6.398;2022-10-18T07:39:13;12.70;99.90
52125;DHT22;38119;52.710;6.398;2022-10-18T07:41:39;12.70;99.90
52125;DHT22;38119;52.710;6.398;2022-10-18T07:44:05;12.60;99.90
52125;DHT22;38119;52.710;6.398;2022-10-18T07:46:31;12.70;99.90
52125;DHT22;38119;52.710;6.398;2022-10-18T07:48:56;12.70;99.90
52125;DHT22;38119;52.710;6.398;2022-10-18T07:51:24;12.60;99.90
52125;DHT22;38119;52.710;6.398;2022-10-18T07:53:50;12.70;99.90
52125;DHT22;38119;52.710;6.398;2022-10-18T07:56:18;12.70;99.90
52125;DHT22;38119;52.710;6.398;2022-10-18T07:58:47;12.70;99.90
52125;DHT22;38119;52.710;6.398;2022-10-18T08:01:13;12.80;99.90
52125;DHT22;38119;52.710;6.398;2022-10-18T08:03:40;12.70;99.90
52125;DHT22;38119;52.710;6.398;2022-10-18T08:06:07;12.60;99.90
52125;DHT22;38119;52.710;6.398;2022-10-18T08:08:35;12.70;99.90
52125;DHT22;38119;52.710;6.398;2022-10-18T08:11:13;12.80;99.90
52125;DHT22;38119;52.710;6.398;2022-10-18T08:13:39;12.80;99.90
52125;DHT22;38119;52.710;6.398;2022-10-18T08:16:07;12.80;99.90
52125;DHT22;38119;52.710;6.398;2022-10-18T08:18:33;12.80;99.90
52125;DHT22;38119;52.710;6.398;2022-10-18T08:21:00;12.80;99.90
52125;DHT22;38119;52.710;6.398;2022-10-18T08:23:26;12.70;99.90
52125;DHT22;38119;52.710;6.398;2022-10-18T08:25:52;12.70;99.90
52125;DHT22;38119;52.710;6.398;2022-10-18T08:28:17;12.80;99.90
52125;DHT22;38119;52.710;6.398;2022-10-18T08:30:43;12.90;99.90
52125;DHT22;38119;52.710;6.398;2022-10-18T08:33:09;12.90;99.90
52125;DHT22;38119;52.710;6.398;2022-10-18T08:35:34;12.90;99.90
52125;DHT22;38119;52.710;6.398;2022-10-18T08:38:00;12.90;99.90
52125;DHT22;38119;52.710;6.398;2022-10-18T08:40:26;13.00;99.90
52125;DHT22;38119;52.710;6.398;2022-10-18T08:43:15;13.00;99.90
52125;DHT22;38119;52.710;6.398;2022-10-18T08:45:45;13.00;99.90
52125;DHT22;38119;52.710;6.398;2022-10-18T08:48:46;13.00;99.90
52125;DHT22;38119;52.710;6.398;2022-10-18T08:51:46;13.10;99.90
52125;DHT22;38119;52.710;6.398;2022-10-18T08:54:34;13.10;99.90
52125;DHT22;38119;52.710;6.398;2022-10-18T08:57:04;13.30;99.90
52125;DHT22;38119;52.710;6.398;2022-10-18T08:59:39;13.20;99.90
52125;DHT22;38119;52.710;6.398;2022-10-18T09:08:04;13.30;99.90
52125;DHT22;38119;52.710;6.398;2022-10-18T09:16:15;13.30;99.90
52125;DHT22;38119;52.710;6.398;2022-10-18T09:19:23;13.30;99.90
52125;DHT22;38119;52.710;6.398;2022-10-18T09:21:57;13.40;99.90
52125;DHT22;38119;52.710;6.398;2022-10-18T09:24:38;13.30;99.90
52125;DHT22;38119;52.710;6.398;2022-10-18T09:27:15;13.50;99.90
52125;DHT22;38119;52.710;6.398;2022-10-18T09:32:50;13.50;99.90
52125;DHT22;38119;52.710;6.398;2022-10-18T09:38:41;13.40;99.90
52125;DHT22;38119;52.710;6.398;2022-10-18T09:41:12;13.40;99.90
52125;DHT22;38119;52.710;6.398;2022-10-18T09:43:58;13.40;99.90
52125;DHT22;38119;52.710;6.398;2022-10-18T09:46:32;13.50;99.90
52125;DHT22;38119;52.710;6.398;2022-10-18T09:49:10;13.50;99.90
52125;DHT22;38119;52.710;6.398;2022-10-18T09:51:39;13.50;99.90
52125;DHT22;38119;52.710;6.398;2022-10-18T09:54:46;13.50;99.90
52125;DHT22;38119;52.710;6.398;2022-10-18T09:57:30;13.60;99.90
52125;DHT22;38119;52.710;6.398;2022-10-18T09:59:57;13.60;99.90
52125;DHT22;38119;52.710;6.398;2022-10-18T10:02:23;13.70;99.90
52125;DHT22;38119;52.710;6.398;2022-10-18T10:04:50;13.60;99.90
52125;DHT22;38119;52.710;6.398;2022-10-18T10:07:24;13.70;99.90
52125;DHT22;38119;52.710;6.398;2022-10-18T10:12:37;13.80;99.90
52125;DHT22;38119;52.710;6.398;2022-10-18T10:15:17;13.90;99.90
52125;DHT22;38119;52.710;6.398;2022-10-18T10:17:59;14.00;99.90
52125;DHT22;38119;52.710;6.398;2022-10-18T10:20:33;14.00;99.90
52125;DHT22;38119;52.710;6.398;2022-10-18T10:25:50;14.20;99.90
52125;DHT22;38119;52.710;6.398;2022-10-18T10:28:20;14.30;99.90
52125;DHT22;38119;52.710;6.398;2022-10-18T10:30:46;14.50;99.90
52125;DHT22;38119;52.710;6.398;2022-10-18T10:33:32;14.60;99.90
52125;DHT22;38119;52.710;6.398;2022-10-18T10:36:00;14.70;99.90
52125;DHT22;38119;52.710;6.398;2022-10-18T10:38:28;14.80;99.90
52125;DHT22;38119;52.710;6.398;2022-10-18T10:40:55;14.80;99.90
52125;DHT22;38119;52.710;6.398;2022-10-18T10:43:25;14.90;99.90
52125;DHT22;38119;52.710;6.398;2022-10-18T10:48:23;15.20;99.90
52125;DHT22;38119;52.710;6.398;2022-10-18T10:51:03;15.40;99.90
52125;DHT22;38119;52.710;6.398;2022-10-18T10:55:59;15.60;99.90
52125;DHT22;38119;52.710;6.398;2022-10-18T10:58:26;15.70;99.90
52125;DHT22;38119;52.710;6.398;2022-10-18T11:00:55;15.70;99.90
52125;DHT22;38119;52.710;6.398;2022-10-18T11:03:22;15.70;99.90
52125;DHT22;38119;52.710;6.398;2022-10-18T11:05:53;15.80;99.90
52125;DHT22;38119;52.710;6.398;2022-10-18T11:08:25;15.80;99.90
52125;DHT22;38119;52.710;6.398;2022-10-18T11:11:29;15.90;99.90
52125;DHT22;38119;52.710;6.398;2022-10-18T11:14:02;16.00;99.90
52125;DHT22;38119;52.710;6.398;2022-10-18T11:16:35;16.00;99.90
52125;DHT22;38119;52.710;6.398;2022-10-18T11:19:13;16.10;99.90
52125;DHT22;38119;52.710;6.398;2022-10-18T11:21:45;16.10;99.90
52125;DHT22;38119;52.710;6.398;2022-10-18T11:24:14;16.10;99.90
52125;DHT22;38119;52.710;6.398;2022-10-18T11:37:31;16.30;99.90
52125;DHT22;38119;52.710;6.398;2022-10-18T11:51:09;16.60;99.90
52125;DHT22;38119;52.710;6.398;2022-10-18T11:56:41;16.60;99.90
52125;DHT22;38119;52.710;6.398;2022-10-18T11:59:43;16.70;99.90
52125;DHT22;38119;52.710;6.398;2022-10-18T12:05:04;16.60;99.90
52125;DHT22;38119;52.710;6.398;2022-10-18T12:07:35;16.60;99.90
52125;DHT22;38119;52.710;6.398;2022-10-18T12:10:06;16.60;99.90
52125;DHT22;38119;52.710;6.398;2022-10-18T12:12:48;16.60;99.90
52125;DHT22;38119;52.710;6.398;2022-10-18T12:15:21;16.60;99.90
52125;DHT22;38119;52.710;6.398;2022-10-18T12:17:52;16.70;99.90
52125;DHT22;38119;52.710;6.398;2022-10-18T12:20:31;16.70;99.90
52125;DHT22;38119;52.710;6.398;2022-10-18T12:23:11;16.80;99.90
52125;DHT22;38119;52.710;6.398;2022-10-18T12:25:42;16.70;99.90
52125;DHT22;38119;52.710;6.398;2022-10-18T12:28:21;16.70;99.90
52125;DHT22;38119;52.710;6.398;2022-10-18T12:31:12;16.70;99.90
52125;DHT22;38119;52.710;6.398;2022-10-18T12:33:44;16.80;99.90
52125;DHT22;38119;52.710;6.398;2022-10-18T12:41:22;17.10;99.90
52125;DHT22;38119;52.710;6.398;2022-10-18T12:43:56;17.10;99.90
52125;DHT22;38119;52.710;6.398;2022-10-18T12:46:23;16.90;99.90
52125;DHT22;38119;52.710;6.398;2022-10-18T12:49:03;16.80;99.90
52125;DHT22;38119;52.710;6.398;2022-10-18T12:51:29;16.70;99.90
52125;DHT22;38119;52.710;6.398;2022-10-18T12:54:08;16.70;99.90
52125;DHT22;38119;52.710;6.398;2022-10-18T12:56:38;16.80;99.90
52125;DHT22;38119;52.710;6.398;2022-10-18T13:09:23;16.70;99.90
52125;DHT22;38119;52.710;6.398;2022-10-18T13:11:52;16.80;99.90
52125;DHT22;38119;52.710;6.398;2022-10-18T13:19:55;16.60;99.90
52125;DHT22;38119;52.710;6.398;2022-10-18T13:25:27;16.60;99.90
52125;DHT22;38119;52.710;6.398;2022-10-18T13:35:56;16.70;99.90
52125;DHT22;38119;52.710;6.398;2022-10-18T13:38:41;16.70;99.90
52125;DHT22;38119;52.710;6.398;2022-10-18T13:41:21;16.70;99.90
52125;DHT22;38119;52.710;6.398;2022-10-18T13:44:23;16.70;99.90
52125;DHT22;38119;52.710;6.398;2022-10-18T14:14:03;16.60;99.90
52125;DHT22;38119;52.710;6.398;2022-10-18T14:16:42;16.60;99.90
52125;DHT22;38119;52.710;6.398;2022-10-18T14:19:27;16.50;99.90
52125;DHT22;38119;52.710;6.398;2022-10-18T14:24:50;16.50;99.90
52125;DHT22;38119;52.710;6.398;2022-10-18T14:27:19;16.50;99.90
52125;DHT22;38119;52.710;6.398;2022-10-18T14:29:47;16.50;99.90
52125;DHT22;38119;52.710;6.398;2022-10-18T14:34:50;16.50;99.90
52125;DHT22;38119;52.710;6.398;2022-10-18T14:37:29;16.40;99.90
52125;DHT22;38119;52.710;6.398;2022-10-18T14:39:56;16.40;99.90
52125;DHT22;38119;52.710;6.398;2022-10-18T14:42:24;16.50;99.90
52125;DHT22;38119;52.710;6.398;2022-10-18T14:44:50;16.40;99.90
52125;DHT22;38119;52.710;6.398;2022-10-18T14:47:22;16.50;99.90
52125;DHT22;38119;52.710;6.398;2022-10-18T14:49:48;16.40;99.90
52125;DHT22;38119;52.710;6.398;2022-10-18T14:52:21;16.30;99.90
52125;DHT22;38119;52.710;6.398;2022-10-18T14:54:48;16.20;99.90
52125;DHT22;38119;52.710;6.398;2022-10-18T14:57:28;16.20;99.90
52125;DHT22;38119;52.710;6.398;2022-10-18T15:00:03;16.20;99.90
52125;DHT22;38119;52.710;6.398;2022-10-18T15:02:31;16.20;99.90
52125;DHT22;38119;52.710;6.398;2022-10-18T15:05:23;16.10;99.90
52125;DHT22;38119;52.710;6.398;2022-10-18T15:07:50;16.00;99.90
52125;DHT22;38119;52.710;6.398;2022-10-18T15:12:45;16.00;99.90
52125;DHT22;38119;52.710;6.398;2022-10-18T15:15:24;15.90;99.90
52125;DHT22;38119;52.710;6.398;2022-10-18T15:17:51;15.90;99.90
52125;DHT22;38119;52.710;6.398;2022-10-18T15:20:19;15.90;99.90
52125;DHT22;38119;52.710;6.398;2022-10-18T15:22:45;15.80;99.90
52125;DHT22;38119;52.710;6.398;2022-10-18T15:25:28;15.80;99.90
52125;DHT22;38119;52.710;6.398;2022-10-18T15:27:58;15.80;99.90
52125;DHT22;38119;52.710;6.398;2022-10-18T15:33:02;15.70;99.90
52125;DHT22;38119;52.710;6.398;2022-10-18T15:35:32;15.70;99.90
52125;DHT22;38119;52.710;6.398;2022-10-18T15:38:00;15.70;99.90
52125;DHT22;38119;52.710;6.398;2022-10-18T15:40:32;15.70;99.90
52125;DHT22;38119;52.710;6.398;2022-10-18T15:43:00;15.60;99.90
52125;DHT22;38119;52.710;6.398;2022-10-18T15:45:33;15.60;99.90
52125;DHT22;38119;52.710;6.398;2022-10-18T15:51:00;15.50;99.90
52125;DHT22;38119;52.710;6.398;2022-10-18T15:53:43;15.40;99.90
52125;DHT22;38119;52.710;6.398;2022-10-18T15:56:25;15.30;99.90
52125;DHT22;38119;52.710;6.398;2022-10-18T15:58:53;15.30;99.90
52125;DHT22;38119;52.710;6.398;2022-10-18T16:01:36;15.20;99.90
52125;DHT22;38119;52.710;6.398;2022-10-18T16:04:25;15.20;99.90
52125;DHT22;38119;52.710;6.398;2022-10-18T16:06:51;15.10;99.90
52125;DHT22;38119;52.710;6.398;2022-10-18T16:09:19;15.10;99.90
52125;DHT22;38119;52.710;6.398;2022-10-18T16:11:48;15.00;99.90
52125;DHT22;38119;52.710;6.398;2022-10-18T16:14:16;14.90;99.90
52125;DHT22;38119;52.710;6.398;2022-10-18T16:16:42;14.90;99.90
52125;DHT22;38119;52.710;6.398;2022-10-18T16:19:11;14.80;99.90
52125;DHT22;38119;52.710;6.398;2022-10-18T16:21:38;14.70;99.90
52125;DHT22;38119;52.710;6.398;2022-10-18T16:24:04;14.70;99.90
52125;DHT22;38119;52.710;6.398;2022-10-18T16:26:30;14.60;99.90
52125;DHT22;38119;52.710;6.398;2022-10-18T16:28:57;14.50;99.90
52125;DHT22;38119;52.710;6.398;2022-10-18T16:31:25;14.50;99.90
52125;DHT22;38119;52.710;6.398;2022-10-18T16:33:52;14.40;99.90
52125;DHT22;38119;52.710;6.398;2022-10-18T16:36:21;14.20;99.90
52125;DHT22;38119;52.710;6.398;2022-10-18T16:38:47;14.20;99.90
52125;DHT22;38119;52.710;6.398;2022-10-18T16:41:13;14.10;99.90
52125;DHT22;38119;52.710;6.398;2022-10-18T16:43:41;14.10;99.90
52125;DHT22;38119;52.710;6.398;2022-10-18T16:46:09;14.00;99.90
52125;DHT22;38119;52.710;6.398;2022-10-18T16:48:34;14.00;99.90
52125;DHT22;38119;52.710;6.398;2022-10-18T16:51:00;14.00;99.90
52125;DHT22;38119;52.710;6.398;2022-10-18T16:53:26;14.00;99.90
52125;DHT22;38119;52.710;6.398;2022-10-18T16:55:57;13.90;99.90
52125;DHT22;38119;52.710;6.398;2022-10-18T16:58:25;13.90;99.90
52125;DHT22;38119;52.710;6.398;2022-10-18T17:00:51;13.90;99.90
52125;DHT22;38119;52.710;6.398;2022-10-18T17:03:18;13.90;99.90
52125;DHT22;38119;52.710;6.398;2022-10-18T17:05:43;13.90;99.90
52125;DHT22;38119;52.710;6.398;2022-10-18T17:08:18;13.80;99.90
52125;DHT22;38119;52.710;6.398;2022-10-18T17:10:44;13.80;99.90
52125;DHT22;38119;52.710;6.398;2022-10-18T17:13:10;13.80;99.90
52125;DHT22;38119;52.710;6.398;2022-10-18T17:15:37;13.70;99.90
52125;DHT22;38119;52.710;6.398;2022-10-18T17:18:03;13.70;99.90
52125;DHT22;38119;52.710;6.398;2022-10-18T17:20:30;13.60;99.90
52125;DHT22;38119;52.710;6.398;2022-10-18T17:22:55;13.60;99.90
52125;DHT22;38119;52.710;6.398;2022-10-18T17:25:21;13.60;99.90
52125;DHT22;38119;52.710;6.398;2022-10-18T17:27:47;13.60;99.90
52125;DHT22;38119;52.710;6.398;2022-10-18T17:30:13;13.50;99.90
52125;DHT22;38119;52.710;6.398;2022-10-18T17:32:40;13.50;99.90
52125;DHT22;38119;52.710;6.398;2022-10-18T17:35:09;13.40;99.90
52125;DHT22;38119;52.710;6.398;2022-10-18T17:37:34;13.40;99.90
52125;DHT22;38119;52.710;6.398;2022-10-18T17:40:01;13.40;99.90
52125;DHT22;38119;52.710;6.398;2022-10-18T17:42:27;13.40;99.90
52125;DHT22;38119;52.710;6.398;2022-10-18T17:44:53;13.40;99.90
52125;DHT22;38119;52.710;6.398;2022-10-18T17:47:19;13.30;99.90
52125;DHT22;38119;52.710;6.398;2022-10-18T17:49:44;13.30;99.90
52125;DHT22;38119;52.710;6.398;2022-10-18T17:52:10;13.30;99.90
52125;DHT22;38119;52.710;6.398;2022-10-18T17:54:36;13.20;99.90
52125;DHT22;38119;52.710;6.398;2022-10-18T17:57:02;13.20;99.90
52125;DHT22;38119;52.710;6.398;2022-10-18T17:59:27;13.30;99.90
52125;DHT22;38119;52.710;6.398;2022-10-18T18:01:53;13.30;99.90
52125;DHT22;38119;52.710;6.398;2022-10-18T18:04:18;13.30;99.90
52125;DHT22;38119;52.710;6.398;2022-10-18T18:06:44;13.10;99.90
52125;DHT22;38119;52.710;6.398;2022-10-18T18:09:14;13.20;99.90
52125;DHT22;38119;52.710;6.398;2022-10-18T18:11:42;13.10;99.90
52125;DHT22;38119;52.710;6.398;2022-10-18T18:14:09;13.10;99.90